Agenda aeronáutica de Córdoba

*17 y 18 de agosto de 2017 - Encuentro nacional de Aero Boero - Morteros
*19 y 20 de agosto de 2017 - Festival dia del niño - Santa Maria de Punilla
*20 de agosto de 2017 - Festival dia del niño - Rio Tercero
*25 de agosto de 2017 - Primer vuelo Córdoba - Montevideo de Amaszonas Uruguay - Aeropuerto Córdoba
*10 de septiembre de 2017 - Primer vuelo Córdoba - Santiago de Chile de Austral - Aeropuerto Córdoba
*14 de septiembre de 2017 - Primer vuelo Córdoba - Santa Cruz de la Sierra de Amaszonas Bolivia - Aeropuerto Córdoba
*15 de septiembre de 2017 - Primer vuelo Córdoba - El Calafate de Austral (reanudación) - Aeropuerto Córdoba
*16 de septiembre de 2017 - Primer vuelo Córdoba - Trelew de Aerolíneas Argentinas - Aeropuerto Córdoba
*16 y 17 de septiembre de 2017 - Encuentro aeronáutico - Villa Dolores
*16 y 17 de septiembre de 2017 - Festival Aéreo - Las Varillas
*23 y 24 de septiembre de 2017 - Festival Aéreo - Villa María
*30 de septiembre y 1 de octubre de 2017 - Festival Aéreo - Bell Ville
*6 y 7 de octubre de 2017 - Festival Aéreo - Marcos Juárez
*13 a 16 de octubre de 2017 - Campeonato de Jet Radio Control – Villa Rumipal
*25 a 29 de octubre de 2017 - Curso anual de seguridad y vuelo en montaña - Villa General Belgrano
*11 y 12 de noviembre de 2017 - Festival aéreo - Jesús Maria
*18 de noviembre de 2017 - Primer vuelo Córdoba - Lima de Avianca-TACA -
Flightradar24.com

lunes, 21 de mayo de 2012

Espesa niebla de otoño


Entre las 05:00hs y las 10:19hs, el aeropuerto Córdoba permaneció bajo mínimos para todo tipo de operaciones, motivo por el cual los primeros vuelos del día sufrieron demoras de hasta cuatro horas, en tanto que los arribos se vieron dificultados también con la cancelación y demoras de algunos de ellos, y e inclusive desvío de uno. Este fue el caso del Lan Perú 2423 operado en el Airbus A319 CC-CYL que provenía de Lima, y que tuvo que dirigirse a su alternativa, la ciudad de Mendoza.
Los METAR y SPECI fueron asombrosos, ya que por momentos la visibilidad horizontal se redujo a tan solo 15 metros, y el techo disminuyo a 0.
   
SPECI SACO 201319Z 23006KT 0600 FGDZ OVC002 13/13 Q1018=
   
METAR SACO 201300Z 23002KT 0300 FGDZ OVC002 13/13 Q1017=
   
SPECI SACO 201210Z 14004KT 0100 +FGDZ OVC000 13/13 Q1016=
   
METAR SACO 201200Z 16005KT 0600 -FGDZ OVC002 13/13 Q1016=
   
METAR SACO 201100Z 07003KT 0050 +FG OVC000 13/12 Q1014=
   
METAR SACO 201000Z 00000KT 0015 +FG OVC000 12/12 Q1013=
   
SPECI SACO 200929Z 02004KT 0015 +FG OVC000 12/12 Q1012=
   
METAR SACO 200900Z 05006KT 0030 +FG OVC000 12/12 Q1012=
   
SPECI SACO 200814Z 05007KT 0030 +FG OVC000 10/10 Q1012=
   
METAR SACO 200800Z 05006KT 0100 FG OVC000 10/10 Q1012=

No hay comentarios: